createdAt,value
2022-12-14T00:04:57.337Z,-0.4
2022-12-14T00:09:55.571Z,-0.3
2022-12-14T00:14:53.770Z,-0.3
2022-12-14T00:19:51.971Z,-0.4
2022-12-14T00:24:49.993Z,-0.5
2022-12-14T00:29:48.199Z,-0.5
2022-12-14T00:34:46.548Z,-0.5
2022-12-14T00:39:44.828Z,-0.4
2022-12-14T00:44:43.079Z,-0.4
2022-12-14T00:49:41.386Z,-0.3
2022-12-14T00:54:39.463Z,-0.3
2022-12-14T00:59:37.760Z,-0.3
2022-12-14T01:04:35.955Z,-0.3
2022-12-14T01:09:34.130Z,-0.3
2022-12-14T01:14:32.380Z,-0.3
2022-12-14T01:19:30.528Z,-0.3
2022-12-14T01:24:28.508Z,-0.3
2022-12-14T01:29:26.730Z,-0.3
2022-12-14T01:34:25.039Z,-0.3
2022-12-14T01:39:23.202Z,-0.3
2022-12-14T01:44:21.501Z,-0.3
2022-12-14T01:49:19.781Z,-0.3
2022-12-14T01:54:18.093Z,-0.3
2022-12-14T01:59:16.526Z,-0.2
2022-12-14T02:04:15.059Z,-0.1
2022-12-14T02:09:13.195Z,-0.2
2022-12-14T02:14:11.400Z,-0.2
2022-12-14T02:19:09.498Z,-0.3
2022-12-14T02:24:07.512Z,-0.1
2022-12-14T02:29:05.576Z,-0.2
2022-12-14T02:34:03.605Z,-0.2
2022-12-14T02:39:01.742Z,-0.1
2022-12-14T02:44:00.073Z,-0.1
2022-12-14T02:48:58.487Z,-0.1
2022-12-14T02:53:56.840Z,-0.1
2022-12-14T02:58:55.049Z,-0.1
2022-12-14T03:03:53.390Z,-0.2
2022-12-14T03:08:51.619Z,-0.1
2022-12-14T03:13:49.899Z,-0.1
2022-12-14T03:18:48.170Z,-0.1
2022-12-14T03:23:49.981Z,0
2022-12-14T03:28:47.379Z,-0.1
2022-12-14T03:33:45.582Z,0
2022-12-14T03:38:43.844Z,-0.1
2022-12-14T03:43:42.247Z,-0.1
2022-12-14T03:48:40.492Z,-0.1
2022-12-14T03:53:38.704Z,-0.1
2022-12-14T03:58:36.928Z,0
2022-12-14T04:03:35.102Z,0
2022-12-14T04:08:33.162Z,0
2022-12-14T04:13:31.583Z,0.1
2022-12-14T04:18:29.730Z,0
2022-12-14T04:23:28.270Z,0.1
2022-12-14T04:28:26.143Z,0
2022-12-14T04:33:24.520Z,0
2022-12-14T04:38:22.396Z,0.1
2022-12-14T04:43:20.339Z,0
2022-12-14T04:48:18.377Z,-0.2
2022-12-14T04:53:16.621Z,-0.2
2022-12-14T04:58:15.105Z,0
2022-12-14T05:03:13.285Z,0
2022-12-14T05:08:11.426Z,0.1
2022-12-14T05:13:09.653Z,0.1
2022-12-14T05:18:07.842Z,0
2022-12-14T05:23:05.933Z,0.1
2022-12-14T05:28:04.134Z,0
2022-12-14T05:33:02.416Z,-0.2
2022-12-14T05:38:00.706Z,-0.1
2022-12-14T05:42:58.714Z,0.1
2022-12-14T05:47:56.949Z,0.1
2022-12-14T05:52:55.333Z,0.1
2022-12-14T05:57:53.423Z,0
2022-12-14T06:02:51.729Z,0.2
2022-12-14T06:07:49.953Z,0.2
2022-12-14T06:12:48.209Z,0.3
2022-12-14T06:17:46.705Z,0.5
2022-12-14T06:22:47.680Z,0.8
2022-12-14T06:27:43.036Z,0.9
2022-12-14T06:32:41.167Z,0.9
2022-12-14T06:37:39.451Z,1
2022-12-14T06:42:37.795Z,1.1
2022-12-14T06:47:35.932Z,1.3
2022-12-14T06:52:33.980Z,1.3
2022-12-14T06:57:32.030Z,1.2
2022-12-14T07:02:30.686Z,1.3
2022-12-14T07:07:28.715Z,1.4
2022-12-14T07:12:26.899Z,1.5
2022-12-14T07:17:25.294Z,1.8
2022-12-14T07:22:23.785Z,2.1
2022-12-14T07:27:22.052Z,2
2022-12-14T07:32:20.278Z,1.8
2022-12-14T07:37:18.068Z,1.6
2022-12-14T07:42:16.319Z,1.6
2022-12-14T07:47:16.636Z,1.9
2022-12-14T07:52:13.326Z,2.1
2022-12-14T07:57:11.806Z,2.4
2022-12-14T08:02:10.575Z,2.8
2022-12-14T08:07:08.838Z,2.9
2022-12-14T08:12:07.637Z,2.9
2022-12-14T08:17:05.938Z,3
2022-12-14T08:22:04.944Z,3.5
2022-12-14T08:27:04.019Z,3.7
2022-12-14T08:32:02.726Z,4
2022-12-14T08:37:01.955Z,4.6
2022-12-14T08:41:59.843Z,3.9
2022-12-14T08:46:57.863Z,3.9
2022-12-14T08:51:56.881Z,5
2022-12-14T08:56:55.893Z,5.1
2022-12-14T09:01:53.570Z,4.2
2022-12-14T09:06:51.405Z,3.8
2022-12-14T09:11:49.387Z,3.6
2022-12-14T09:16:47.647Z,3.6
2022-12-14T09:21:46.083Z,3.8
2022-12-14T09:26:44.413Z,3.8
2022-12-14T09:31:42.859Z,4
2022-12-14T09:36:41.605Z,4
2022-12-14T09:41:40.441Z,4.5
2022-12-14T09:46:38.846Z,4.2
2022-12-14T09:51:36.855Z,4
2022-12-14T09:56:35.199Z,4.3
2022-12-14T10:01:33.977Z,4.6
2022-12-14T10:06:31.866Z,4.5
2022-12-14T10:11:29.957Z,4.1
2022-12-14T10:16:27.863Z,3.7
2022-12-14T10:21:25.963Z,3.9
2022-12-14T10:26:24.476Z,3.8
2022-12-14T10:31:23.330Z,5
2022-12-14T10:36:22.923Z,6.3
2022-12-14T10:41:21.447Z,6
2022-12-14T10:46:18.980Z,5.1
2022-12-14T10:51:16.845Z,4.4
2022-12-14T10:56:15.162Z,4.5
2022-12-14T11:01:13.115Z,4
2022-12-14T11:06:10.965Z,3.8
2022-12-14T11:11:12.761Z,4.2
2022-12-14T11:16:08.419Z,4.8
2022-12-14T11:21:07.314Z,5.3
2022-12-14T11:26:05.295Z,4.8
2022-12-14T11:31:03.254Z,4.2
2022-12-14T11:36:01.650Z,4.4
2022-12-14T11:41:02.630Z,5.1
2022-12-14T11:45:59.765Z,5.4
2022-12-14T11:50:57.646Z,4.9
2022-12-14T11:55:55.921Z,4.9
2022-12-14T12:00:54.324Z,5.3
2022-12-14T12:05:53.966Z,5.7
2022-12-14T12:10:52.323Z,5.6
2022-12-14T12:15:50.727Z,5.4
2022-12-14T12:20:48.860Z,5.4
2022-12-14T12:25:47.113Z,5.6
2022-12-14T12:30:45.754Z,6.2
2022-12-14T12:35:44.486Z,6.5
2022-12-14T12:40:42.249Z,5.7
2022-12-14T12:45:39.908Z,5
2022-12-14T12:50:37.826Z,4.6
2022-12-14T12:55:35.959Z,4.4
2022-12-14T13:00:33.851Z,4
2022-12-14T13:05:48.595Z,3.8
2022-12-14T13:10:33.374Z,3.5
2022-12-14T13:15:30.585Z,3.5
2022-12-14T13:20:29.003Z,3.6
2022-12-14T13:25:27.333Z,3.8
2022-12-14T13:30:25.403Z,3.7
2022-12-14T13:35:24.055Z,4
2022-12-14T13:40:22.702Z,4.4
2022-12-14T13:45:20.871Z,4.2
2022-12-14T13:55:22.916Z,3.5
2022-12-14T14:00:15.167Z,3.4
2022-12-14T14:05:13.395Z,3.1
2022-12-14T14:10:11.161Z,2.9
2022-12-14T14:15:09.189Z,3.1
2022-12-14T14:20:07.156Z,3.3
2022-12-14T14:25:12.210Z,3.5
2022-12-14T14:30:03.849Z,3.5
2022-12-14T14:35:02.098Z,3.5
2022-12-14T14:40:07.525Z,3.4
2022-12-14T14:44:58.489Z,3.3
2022-12-14T14:49:56.944Z,3.3
2022-12-14T14:59:53.476Z,3.3
2022-12-14T15:04:51.775Z,3.2
2022-12-14T15:09:49.979Z,3.2
2022-12-14T15:14:48.870Z,2.8
2022-12-14T15:19:46.268Z,2.5
2022-12-14T15:24:44.384Z,2.3
2022-12-14T15:29:42.677Z,2.2
2022-12-14T15:34:40.725Z,2.2
2022-12-14T15:39:39.059Z,2.2
2022-12-14T15:44:37.375Z,2.2
2022-12-14T15:49:35.870Z,2.1
2022-12-14T15:54:34.237Z,2.1
2022-12-14T15:59:32.455Z,2
2022-12-14T16:04:30.670Z,2.1
2022-12-14T16:09:29.512Z,2.5
2022-12-14T16:14:27.686Z,2.7
2022-12-14T16:19:28.132Z,2.7
2022-12-14T16:24:25.107Z,2.9
2022-12-14T16:29:23.739Z,3.1
2022-12-14T16:34:22.091Z,3.1
2022-12-14T16:39:20.553Z,3.2
2022-12-14T16:44:18.994Z,3.4
2022-12-14T16:49:17.049Z,3.3
2022-12-14T16:54:15.182Z,3.3
2022-12-14T16:59:13.233Z,2.9
2022-12-14T17:04:11.460Z,2.9
2022-12-14T17:09:09.649Z,2.9
2022-12-14T17:14:07.989Z,2.7
2022-12-14T17:19:06.357Z,3
2022-12-14T17:24:04.891Z,3.2
2022-12-14T17:29:03.402Z,3.4
2022-12-14T17:34:01.863Z,3.5
2022-12-14T17:39:00.476Z,3.6
2022-12-14T17:43:59.079Z,3.6
2022-12-14T17:49:01.567Z,3.6
2022-12-14T17:53:56.368Z,3.8
2022-12-14T17:58:54.761Z,3.8
2022-12-14T18:03:53.123Z,3.8
2022-12-14T18:08:51.293Z,3.8
2022-12-14T18:13:49.636Z,3.8
2022-12-14T18:18:47.977Z,3.8
2022-12-14T18:23:46.061Z,3.8
2022-12-14T18:28:44.627Z,3.8
2022-12-14T18:33:42.944Z,3.8
2022-12-14T18:38:41.373Z,3.8
2022-12-14T18:43:43.510Z,3.7
2022-12-14T18:48:37.915Z,3.5
2022-12-14T18:53:35.943Z,3.4
2022-12-14T18:58:34.348Z,3.1
2022-12-14T19:03:32.935Z,2.7
2022-12-14T19:08:30.518Z,2.4
2022-12-14T19:13:28.952Z,2.3
2022-12-14T19:18:29.679Z,2.4
2022-12-14T19:23:25.430Z,2.5
2022-12-14T19:28:32.251Z,2.5
2022-12-14T19:33:22.208Z,2.7
2022-12-14T19:38:20.751Z,2.9
2022-12-14T19:43:18.825Z,2.8
2022-12-14T19:48:17.113Z,3
2022-12-14T19:53:17.374Z,3.1
2022-12-14T19:58:13.527Z,3.1
2022-12-14T20:03:11.963Z,3
2022-12-14T20:08:10.029Z,2.9
2022-12-14T20:13:08.282Z,3.1
2022-12-14T20:18:06.707Z,3.2
2022-12-14T20:23:05.010Z,3.2
2022-12-14T20:28:03.471Z,3.3
2022-12-14T20:33:02.018Z,3.4
2022-12-14T20:38:00.313Z,3.5
2022-12-14T20:42:58.689Z,3.5
2022-12-14T20:47:56.900Z,3.5
2022-12-14T20:52:55.476Z,3.5
2022-12-14T20:57:54.058Z,3.5
2022-12-14T21:02:52.324Z,3.6
2022-12-14T21:07:50.781Z,3.5
2022-12-14T21:12:48.917Z,3.5
2022-12-14T21:17:46.956Z,3.5
2022-12-14T21:22:45.016Z,3.5
2022-12-14T21:27:43.316Z,3.6
2022-12-14T21:32:41.580Z,3.6
2022-12-14T21:37:40.028Z,3.6
2022-12-14T21:42:38.027Z,3.6
2022-12-14T21:47:36.277Z,3.7
2022-12-14T21:52:34.994Z,3.7
2022-12-14T21:57:33.316Z,3.6
2022-12-14T22:02:31.488Z,3.7
2022-12-14T22:07:29.793Z,3.7
2022-12-14T22:12:28.119Z,3.8
2022-12-14T22:17:26.520Z,3.9
2022-12-14T22:22:24.789Z,4
2022-12-14T22:27:23.218Z,4.1
2022-12-14T22:32:21.905Z,4.2
2022-12-14T22:37:20.074Z,4.3
2022-12-14T22:42:18.279Z,4.4
2022-12-14T22:47:16.419Z,4.4
2022-12-14T22:52:16.530Z,4.6
2022-12-14T22:57:13.038Z,4.6
2022-12-14T23:02:11.556Z,4.6
2022-12-14T23:07:09.705Z,4.7
2022-12-14T23:12:11.425Z,4.7
2022-12-14T23:17:06.650Z,4.7
2022-12-14T23:22:04.998Z,4.7
2022-12-14T23:27:08.956Z,4.8
2022-12-14T23:32:01.959Z,4.9
2022-12-14T23:37:00.405Z,4.9
2022-12-14T23:41:58.580Z,5
2022-12-14T23:46:56.761Z,4.9
2022-12-14T23:51:55.614Z,5
2022-12-14T23:56:53.903Z,5
